Perry, Iowa
Current Conditions -  °F | °C
As of 6:35 AM on Wednesday 26 Nov 2014 (Local Time) from KPRO Reporting Station
Light Snow Light Snow  
Wind Chill: 20°   Ceiling: 500
Heat Index: 30°   Visibility: 5mi
Dew Point: 30°   Wind: 13mph
Humidity: 100%   Direction: 100°E
Pressure: 29.86"   Gusts: NA
Location:  41.84°N, 94.1°W
Report Text: KPRO 261235Z AUTO 10011KT 5SM -SN OVC005 M01/M01 A2986 RMK AO2 T10101010
Loading
Personal Weather Stations






























Interactive Weather Map New forecast layout! Learn more

10-Day Weather Forecast

Advertisements
Track Severe Weather on mobile